Terminal Aerodrome Forecast
Issued by NWS

Current Version | Previous Version | Text Only | Print | Product List | Glossary On
Versions: 1 2 3 4 5 6 7 8 9 10 11 12 13 14 15
145
FTUS42 KJAX 261120
TAFCRG
TAF
KCRG 261120Z 2612/2712 11004KT P6SM FEW250
     FM261500 09012G18KT P6SM FEW045
     FM270000 10007KT P6SM FEW040=

USA.gov is the U.S. government's official web portal to all federal, state and local government web resources and services.